sensor_id;sensor_type;location;lat;lon;timestamp;P1;durP1;ratioP1;P2;durP2;ratioP2
29954;SDS011;68448;51.188;6.868;2023-05-19T00:00:08;11.60;;;4.23;;
29954;SDS011;68448;51.188;6.868;2023-05-19T00:02:39;12.37;;;4.50;;
29954;SDS011;68448;51.188;6.868;2023-05-19T00:05:08;12.67;;;4.73;;
29954;SDS011;68448;51.188;6.868;2023-05-19T00:07:37;7.00;;;4.90;;
29954;SDS011;68448;51.188;6.868;2023-05-19T00:10:04;10.57;;;4.67;;
29954;SDS011;68448;51.188;6.868;2023-05-19T00:12:32;6.87;;;5.30;;
29954;SDS011;68448;51.188;6.868;2023-05-19T00:14:59;10.03;;;3.70;;
29954;SDS011;68448;51.188;6.868;2023-05-19T00:17:26;7.97;;;4.13;;
29954;SDS011;68448;51.188;6.868;2023-05-19T00:19:53;11.07;;;4.83;;
29954;SDS011;68448;51.188;6.868;2023-05-19T00:22:22;6.63;;;4.33;;
29954;SDS011;68448;51.188;6.868;2023-05-19T00:24:49;6.87;;;4.07;;
29954;SDS011;68448;51.188;6.868;2023-05-19T00:27:16;9.13;;;4.50;;
29954;SDS011;68448;51.188;6.868;2023-05-19T00:29:43;7.77;;;4.50;;
29954;SDS011;68448;51.188;6.868;2023-05-19T00:32:10;12.00;;;4.87;;
29954;SDS011;68448;51.188;6.868;2023-05-19T00:34:37;11.67;;;4.50;;
29954;SDS011;68448;51.188;6.868;2023-05-19T00:37:06;7.80;;;5.00;;
29954;SDS011;68448;51.188;6.868;2023-05-19T00:39:34;11.30;;;4.80;;
29954;SDS011;68448;51.188;6.868;2023-05-19T00:42:02;9.50;;;4.87;;
29954;SDS011;68448;51.188;6.868;2023-05-19T00:44:29;11.30;;;5.27;;
29954;SDS011;68448;51.188;6.868;2023-05-19T00:46:56;10.10;;;5.47;;
29954;SDS011;68448;51.188;6.868;2023-05-19T00:49:23;9.27;;;5.23;;
29954;SDS011;68448;51.188;6.868;2023-05-19T00:51:50;10.23;;;5.40;;
29954;SDS011;68448;51.188;6.868;2023-05-19T00:54:18;7.70;;;4.87;;
29954;SDS011;68448;51.188;6.868;2023-05-19T00:56:47;7.00;;;4.70;;
29954;SDS011;68448;51.188;6.868;2023-05-19T00:59:14;7.97;;;5.37;;
29954;SDS011;68448;51.188;6.868;2023-05-19T01:01:41;17.37;;;5.73;;
29954;SDS011;68448;51.188;6.868;2023-05-19T01:04:09;9.53;;;4.90;;
29954;SDS011;68448;51.188;6.868;2023-05-19T01:06:36;13.30;;;5.17;;
29954;SDS011;68448;51.188;6.868;2023-05-19T01:09:04;8.80;;;4.70;;
29954;SDS011;68448;51.188;6.868;2023-05-19T01:11:33;11.90;;;5.20;;
29954;SDS011;68448;51.188;6.868;2023-05-19T01:14:01;6.43;;;4.73;;
29954;SDS011;68448;51.188;6.868;2023-05-19T01:16:29;13.17;;;6.10;;
29954;SDS011;68448;51.188;6.868;2023-05-19T01:18:59;6.70;;;4.67;;
29954;SDS011;68448;51.188;6.868;2023-05-19T01:24:22;11.03;;;6.23;;
29954;SDS011;68448;51.188;6.868;2023-05-19T01:26:59;7.60;;;4.70;;
29954;SDS011;68448;51.188;6.868;2023-05-19T01:29:35;8.83;;;5.27;;
29954;SDS011;68448;51.188;6.868;2023-05-19T01:32:07;7.43;;;4.40;;
29954;SDS011;68448;51.188;6.868;2023-05-19T01:34:37;9.23;;;5.50;;
29954;SDS011;68448;51.188;6.868;2023-05-19T01:37:05;9.37;;;5.30;;
29954;SDS011;68448;51.188;6.868;2023-05-19T01:39:33;9.13;;;4.80;;
29954;SDS011;68448;51.188;6.868;2023-05-19T01:42:02;10.40;;;5.33;;
29954;SDS011;68448;51.188;6.868;2023-05-19T01:44:29;9.40;;;5.10;;
29954;SDS011;68448;51.188;6.868;2023-05-19T01:46:57;8.50;;;5.83;;
29954;SDS011;68448;51.188;6.868;2023-05-19T01:49:26;15.57;;;4.40;;
29954;SDS011;68448;51.188;6.868;2023-05-19T01:51:53;8.33;;;5.53;;
29954;SDS011;68448;51.188;6.868;2023-05-19T01:54:20;6.60;;;5.40;;
29954;SDS011;68448;51.188;6.868;2023-05-19T01:56:49;7.60;;;4.83;;
29954;SDS011;68448;51.188;6.868;2023-05-19T01:59:22;9.97;;;5.10;;
29954;SDS011;68448;51.188;6.868;2023-05-19T02:01:53;9.83;;;6.00;;
29954;SDS011;68448;51.188;6.868;2023-05-19T02:04:24;9.03;;;4.90;;
29954;SDS011;68448;51.188;6.868;2023-05-19T02:07:00;8.07;;;5.10;;
29954;SDS011;68448;51.188;6.868;2023-05-19T02:09:31;7.30;;;6.20;;
29954;SDS011;68448;51.188;6.868;2023-05-19T02:12:02;8.93;;;4.90;;
29954;SDS011;68448;51.188;6.868;2023-05-19T02:14:31;11.63;;;5.07;;
29954;SDS011;68448;51.188;6.868;2023-05-19T02:16:59;8.20;;;5.10;;
29954;SDS011;68448;51.188;6.868;2023-05-19T02:19:28;11.83;;;5.47;;
29954;SDS011;68448;51.188;6.868;2023-05-19T02:21:56;14.37;;;6.07;;
29954;SDS011;68448;51.188;6.868;2023-05-19T02:24:25;10.43;;;5.93;;
29954;SDS011;68448;51.188;6.868;2023-05-19T02:26:52;6.47;;;4.63;;
29954;SDS011;68448;51.188;6.868;2023-05-19T02:29:20;9.93;;;5.53;;
29954;SDS011;68448;51.188;6.868;2023-05-19T02:31:48;6.87;;;4.53;;
29954;SDS011;68448;51.188;6.868;2023-05-19T02:34:17;11.97;;;5.53;;
29954;SDS011;68448;51.188;6.868;2023-05-19T02:36:44;10.70;;;5.87;;
29954;SDS011;68448;51.188;6.868;2023-05-19T02:39:11;16.77;;;6.53;;
29954;SDS011;68448;51.188;6.868;2023-05-19T02:41:40;9.60;;;5.10;;
29954;SDS011;68448;51.188;6.868;2023-05-19T02:44:07;14.27;;;4.87;;
29954;SDS011;68448;51.188;6.868;2023-05-19T02:46:35;11.43;;;5.40;;
29954;SDS011;68448;51.188;6.868;2023-05-19T02:49:02;10.07;;;4.80;;
29954;SDS011;68448;51.188;6.868;2023-05-19T02:51:29;7.87;;;5.13;;
29954;SDS011;68448;51.188;6.868;2023-05-19T02:53:56;11.53;;;6.80;;
29954;SDS011;68448;51.188;6.868;2023-05-19T02:56:24;6.80;;;4.77;;
29954;SDS011;68448;51.188;6.868;2023-05-19T02:58:52;10.37;;;5.50;;
29954;SDS011;68448;51.188;6.868;2023-05-19T03:01:19;9.93;;;4.80;;
29954;SDS011;68448;51.188;6.868;2023-05-19T03:03:47;20.20;;;6.03;;
29954;SDS011;68448;51.188;6.868;2023-05-19T03:06:14;7.23;;;5.37;;
29954;SDS011;68448;51.188;6.868;2023-05-19T03:08:41;9.00;;;4.50;;
29954;SDS011;68448;51.188;6.868;2023-05-19T03:11:08;12.40;;;6.13;;
29954;SDS011;68448;51.188;6.868;2023-05-19T03:13:35;8.60;;;5.00;;
29954;SDS011;68448;51.188;6.868;2023-05-19T03:16:05;10.73;;;5.67;;
29954;SDS011;68448;51.188;6.868;2023-05-19T03:18:32;8.20;;;5.50;;
29954;SDS011;68448;51.188;6.868;2023-05-19T03:21:00;9.20;;;5.10;;
29954;SDS011;68448;51.188;6.868;2023-05-19T03:23:27;12.73;;;5.43;;
29954;SDS011;68448;51.188;6.868;2023-05-19T03:25:54;11.40;;;5.80;;
29954;SDS011;68448;51.188;6.868;2023-05-19T03:28:21;7.17;;;6.00;;
29954;SDS011;68448;51.188;6.868;2023-05-19T03:30:48;10.27;;;5.20;;
29954;SDS011;68448;51.188;6.868;2023-05-19T03:33:20;6.63;;;5.00;;
29954;SDS011;68448;51.188;6.868;2023-05-19T03:35:49;13.03;;;5.70;;
29954;SDS011;68448;51.188;6.868;2023-05-19T03:38:16;12.50;;;4.60;;
29954;SDS011;68448;51.188;6.868;2023-05-19T03:40:50;7.67;;;5.27;;
29954;SDS011;68448;51.188;6.868;2023-05-19T03:43:17;7.93;;;4.87;;
29954;SDS011;68448;51.188;6.868;2023-05-19T03:45:50;15.53;;;6.30;;
29954;SDS011;68448;51.188;6.868;2023-05-19T03:48:42;10.87;;;4.70;;
29954;SDS011;68448;51.188;6.868;2023-05-19T03:51:23;6.07;;;4.30;;
29954;SDS011;68448;51.188;6.868;2023-05-19T03:53:54;13.30;;;6.70;;
29954;SDS011;68448;51.188;6.868;2023-05-19T03:56:21;11.20;;;5.87;;
29954;SDS011;68448;51.188;6.868;2023-05-19T03:58:48;7.47;;;5.17;;
29954;SDS011;68448;51.188;6.868;2023-05-19T04:01:15;7.13;;;5.13;;
29954;SDS011;68448;51.188;6.868;2023-05-19T04:03:44;8.60;;;5.43;;
29954;SDS011;68448;51.188;6.868;2023-05-19T04:06:11;10.30;;;5.40;;
29954;SDS011;68448;51.188;6.868;2023-05-19T04:08:38;17.93;;;6.13;;
29954;SDS011;68448;51.188;6.868;2023-05-19T04:11:06;10.00;;;5.10;;
29954;SDS011;68448;51.188;6.868;2023-05-19T04:13:34;7.93;;;5.03;;
29954;SDS011;68448;51.188;6.868;2023-05-19T04:16:01;10.07;;;6.10;;
29954;SDS011;68448;51.188;6.868;2023-05-19T04:18:28;12.50;;;5.73;;
29954;SDS011;68448;51.188;6.868;2023-05-19T04:20:57;7.53;;;5.67;;
29954;SDS011;68448;51.188;6.868;2023-05-19T04:23:24;12.83;;;5.73;;
29954;SDS011;68448;51.188;6.868;2023-05-19T04:25:51;12.90;;;6.70;;
29954;SDS011;68448;51.188;6.868;2023-05-19T04:28:18;11.43;;;5.33;;
29954;SDS011;68448;51.188;6.868;2023-05-19T04:30:45;12.73;;;6.10;;
29954;SDS011;68448;51.188;6.868;2023-05-19T04:33:13;9.07;;;4.93;;
29954;SDS011;68448;51.188;6.868;2023-05-19T04:35:41;12.00;;;4.60;;
29954;SDS011;68448;51.188;6.868;2023-05-19T04:38:11;9.03;;;5.17;;
29954;SDS011;68448;51.188;6.868;2023-05-19T04:40:39;9.13;;;5.20;;
29954;SDS011;68448;51.188;6.868;2023-05-19T04:43:07;7.03;;;5.00;;
29954;SDS011;68448;51.188;6.868;2023-05-19T04:45:34;6.93;;;4.93;;
29954;SDS011;68448;51.188;6.868;2023-05-19T04:48:02;6.93;;;4.53;;
29954;SDS011;68448;51.188;6.868;2023-05-19T04:50:30;9.87;;;4.40;;
29954;SDS011;68448;51.188;6.868;2023-05-19T04:52:58;6.13;;;3.90;;
29954;SDS011;68448;51.188;6.868;2023-05-19T04:55:27;8.73;;;4.70;;
29954;SDS011;68448;51.188;6.868;2023-05-19T04:57:54;7.23;;;3.90;;
29954;SDS011;68448;51.188;6.868;2023-05-19T05:00:21;12.33;;;4.33;;
29954;SDS011;68448;51.188;6.868;2023-05-19T05:02:56;7.30;;;4.30;;
29954;SDS011;68448;51.188;6.868;2023-05-19T05:05:26;10.93;;;5.33;;
29954;SDS011;68448;51.188;6.868;2023-05-19T05:07:54;9.77;;;4.67;;
29954;SDS011;68448;51.188;6.868;2023-05-19T05:10:22;9.30;;;4.27;;
29954;SDS011;68448;51.188;6.868;2023-05-19T05:12:51;10.37;;;3.73;;
29954;SDS011;68448;51.188;6.868;2023-05-19T05:15:19;6.60;;;3.73;;
29954;SDS011;68448;51.188;6.868;2023-05-19T05:17:48;5.70;;;3.80;;
29954;SDS011;68448;51.188;6.868;2023-05-19T05:20:16;9.40;;;3.57;;
29954;SDS011;68448;51.188;6.868;2023-05-19T05:22:44;5.07;;;3.47;;
29954;SDS011;68448;51.188;6.868;2023-05-19T05:25:13;7.37;;;3.30;;
29954;SDS011;68448;51.188;6.868;2023-05-19T05:27:41;8.13;;;4.00;;
29954;SDS011;68448;51.188;6.868;2023-05-19T05:30:10;6.53;;;4.20;;
29954;SDS011;68448;51.188;6.868;2023-05-19T05:32:37;9.93;;;4.27;;
29954;SDS011;68448;51.188;6.868;2023-05-19T05:35:10;19.10;;;4.67;;
29954;SDS011;68448;51.188;6.868;2023-05-19T05:37:38;7.30;;;3.40;;
29954;SDS011;68448;51.188;6.868;2023-05-19T05:40:06;6.60;;;3.47;;
29954;SDS011;68448;51.188;6.868;2023-05-19T05:42:34;9.60;;;3.57;;
29954;SDS011;68448;51.188;6.868;2023-05-19T05:45:01;5.97;;;3.23;;
29954;SDS011;68448;51.188;6.868;2023-05-19T05:47:31;6.17;;;3.10;;
29954;SDS011;68448;51.188;6.868;2023-05-19T05:49:59;15.33;;;3.60;;
29954;SDS011;68448;51.188;6.868;2023-05-19T05:52:28;8.80;;;3.20;;
29954;SDS011;68448;51.188;6.868;2023-05-19T05:54:57;9.57;;;3.70;;
29954;SDS011;68448;51.188;6.868;2023-05-19T05:57:24;5.53;;;3.37;;
29954;SDS011;68448;51.188;6.868;2023-05-19T05:59:52;4.27;;;2.90;;
29954;SDS011;68448;51.188;6.868;2023-05-19T06:02:19;11.13;;;3.40;;
29954;SDS011;68448;51.188;6.868;2023-05-19T06:04:48;7.77;;;3.00;;
29954;SDS011;68448;51.188;6.868;2023-05-19T06:07:15;9.83;;;3.40;;
29954;SDS011;68448;51.188;6.868;2023-05-19T06:09:43;6.00;;;3.57;;
29954;SDS011;68448;51.188;6.868;2023-05-19T06:12:10;6.90;;;2.93;;
29954;SDS011;68448;51.188;6.868;2023-05-19T06:14:44;4.03;;;3.03;;
29954;SDS011;68448;51.188;6.868;2023-05-19T06:17:31;6.53;;;3.27;;
29954;SDS011;68448;51.188;6.868;2023-05-19T06:20:00;8.03;;;3.03;;
29954;SDS011;68448;51.188;6.868;2023-05-19T06:22:27;8.10;;;3.00;;
29954;SDS011;68448;51.188;6.868;2023-05-19T06:24:55;7.53;;;3.10;;
29954;SDS011;68448;51.188;6.868;2023-05-19T06:27:22;4.73;;;2.80;;
29954;SDS011;68448;51.188;6.868;2023-05-19T06:29:49;7.10;;;3.10;;
29954;SDS011;68448;51.188;6.868;2023-05-19T06:32:17;3.60;;;2.50;;
29954;SDS011;68448;51.188;6.868;2023-05-19T06:34:45;6.33;;;3.20;;
29954;SDS011;68448;51.188;6.868;2023-05-19T06:37:14;7.00;;;3.27;;
29954;SDS011;68448;51.188;6.868;2023-05-19T06:39:42;6.03;;;3.07;;
29954;SDS011;68448;51.188;6.868;2023-05-19T06:42:09;7.03;;;3.50;;
29954;SDS011;68448;51.188;6.868;2023-05-19T06:44:55;10.07;;;2.97;;
29954;SDS011;68448;51.188;6.868;2023-05-19T06:47:25;7.87;;;2.87;;
29954;SDS011;68448;51.188;6.868;2023-05-19T06:49:52;4.80;;;2.67;;
29954;SDS011;68448;51.188;6.868;2023-05-19T06:52:23;10.17;;;3.37;;
29954;SDS011;68448;51.188;6.868;2023-05-19T06:54:51;4.23;;;2.90;;
29954;SDS011;68448;51.188;6.868;2023-05-19T06:57:18;6.13;;;2.90;;
29954;SDS011;68448;51.188;6.868;2023-05-19T06:59:45;8.63;;;3.73;;
29954;SDS011;68448;51.188;6.868;2023-05-19T07:02:13;6.80;;;3.40;;
29954;SDS011;68448;51.188;6.868;2023-05-19T07:04:40;5.83;;;2.70;;
29954;SDS011;68448;51.188;6.868;2023-05-19T07:07:08;6.73;;;3.57;;
29954;SDS011;68448;51.188;6.868;2023-05-19T07:09:36;10.13;;;2.87;;
29954;SDS011;68448;51.188;6.868;2023-05-19T07:12:04;5.33;;;2.93;;
29954;SDS011;68448;51.188;6.868;2023-05-19T07:14:31;9.23;;;3.47;;
29954;SDS011;68448;51.188;6.868;2023-05-19T07:16:58;7.33;;;2.93;;
29954;SDS011;68448;51.188;6.868;2023-05-19T07:19:26;10.33;;;3.50;;
29954;SDS011;68448;51.188;6.868;2023-05-19T07:21:53;7.73;;;2.80;;
29954;SDS011;68448;51.188;6.868;2023-05-19T07:24:20;7.00;;;2.87;;
29954;SDS011;68448;51.188;6.868;2023-05-19T07:26:48;2.80;;;2.40;;
29954;SDS011;68448;51.188;6.868;2023-05-19T07:29:16;6.00;;;2.80;;
29954;SDS011;68448;51.188;6.868;2023-05-19T07:31:43;5.87;;;2.97;;
29954;SDS011;68448;51.188;6.868;2023-05-19T07:34:10;9.03;;;2.73;;
29954;SDS011;68448;51.188;6.868;2023-05-19T07:36:37;11.10;;;3.37;;
29954;SDS011;68448;51.188;6.868;2023-05-19T07:39:04;8.37;;;2.67;;
29954;SDS011;68448;51.188;6.868;2023-05-19T07:41:31;6.77;;;2.57;;
29954;SDS011;68448;51.188;6.868;2023-05-19T07:44:02;4.77;;;2.40;;
29954;SDS011;68448;51.188;6.868;2023-05-19T07:46:30;5.83;;;3.10;;
29954;SDS011;68448;51.188;6.868;2023-05-19T07:48:57;8.37;;;2.63;;
29954;SDS011;68448;51.188;6.868;2023-05-19T07:51:24;5.73;;;2.17;;
29954;SDS011;68448;51.188;6.868;2023-05-19T07:53:51;5.73;;;3.50;;
29954;SDS011;68448;51.188;6.868;2023-05-19T07:56:18;5.53;;;2.47;;
29954;SDS011;68448;51.188;6.868;2023-05-19T07:58:46;4.90;;;2.20;;
29954;SDS011;68448;51.188;6.868;2023-05-19T08:01:14;7.50;;;2.77;;
29954;SDS011;68448;51.188;6.868;2023-05-19T08:03:41;5.10;;;2.60;;
29954;SDS011;68448;51.188;6.868;2023-05-19T08:06:09;3.10;;;2.37;;
29954;SDS011;68448;51.188;6.868;2023-05-19T08:08:36;3.10;;;2.80;;
29954;SDS011;68448;51.188;6.868;2023-05-19T08:11:03;8.87;;;5.30;;
29954;SDS011;68448;51.188;6.868;2023-05-19T08:13:30;8.77;;;2.70;;
29954;SDS011;68448;51.188;6.868;2023-05-19T08:15:57;3.97;;;2.60;;
29954;SDS011;68448;51.188;6.868;2023-05-19T08:18:26;8.50;;;2.40;;
29954;SDS011;68448;51.188;6.868;2023-05-19T08:20:53;3.97;;;2.43;;
29954;SDS011;68448;51.188;6.868;2023-05-19T08:23:20;6.97;;;3.37;;
29954;SDS011;68448;51.188;6.868;2023-05-19T08:25:47;8.47;;;2.70;;
29954;SDS011;68448;51.188;6.868;2023-05-19T08:28:14;5.77;;;2.63;;
29954;SDS011;68448;51.188;6.868;2023-05-19T08:30:41;8.23;;;2.50;;
29954;SDS011;68448;51.188;6.868;2023-05-19T08:33:09;7.50;;;2.30;;
29954;SDS011;68448;51.188;6.868;2023-05-19T08:35:37;5.47;;;2.57;;
29954;SDS011;68448;51.188;6.868;2023-05-19T08:38:04;7.20;;;2.20;;
29954;SDS011;68448;51.188;6.868;2023-05-19T08:40:31;4.70;;;2.40;;
29954;SDS011;68448;51.188;6.868;2023-05-19T08:42:59;5.57;;;2.57;;
29954;SDS011;68448;51.188;6.868;2023-05-19T08:45:26;3.70;;;1.87;;
29954;SDS011;68448;51.188;6.868;2023-05-19T08:47:54;5.83;;;2.77;;
29954;SDS011;68448;51.188;6.868;2023-05-19T08:50:22;10.53;;;3.03;;
29954;SDS011;68448;51.188;6.868;2023-05-19T08:52:51;4.80;;;1.93;;
29954;SDS011;68448;51.188;6.868;2023-05-19T08:55:23;5.30;;;2.17;;
29954;SDS011;68448;51.188;6.868;2023-05-19T08:57:51;3.60;;;2.00;;
29954;SDS011;68448;51.188;6.868;2023-05-19T09:00:19;4.57;;;2.17;;
29954;SDS011;68448;51.188;6.868;2023-05-19T09:02:46;5.60;;;2.00;;
29954;SDS011;68448;51.188;6.868;2023-05-19T09:05:31;5.80;;;2.60;;
29954;SDS011;68448;51.188;6.868;2023-05-19T09:08:00;7.00;;;2.60;;
29954;SDS011;68448;51.188;6.868;2023-05-19T09:10:29;6.87;;;2.40;;
29954;SDS011;68448;51.188;6.868;2023-05-19T09:12:56;5.20;;;2.43;;
29954;SDS011;68448;51.188;6.868;2023-05-19T09:15:24;5.50;;;2.60;;
29954;SDS011;68448;51.188;6.868;2023-05-19T09:18:01;7.27;;;2.43;;
29954;SDS011;68448;51.188;6.868;2023-05-19T09:20:29;3.57;;;2.30;;
29954;SDS011;68448;51.188;6.868;2023-05-19T09:22:56;17.43;;;3.20;;
29954;SDS011;68448;51.188;6.868;2023-05-19T09:25:26;4.07;;;2.40;;
29954;SDS011;68448;51.188;6.868;2023-05-19T09:27:54;15.27;;;4.10;;
29954;SDS011;68448;51.188;6.868;2023-05-19T09:30:22;7.83;;;2.50;;
29954;SDS011;68448;51.188;6.868;2023-05-19T09:32:49;5.00;;;2.10;;
29954;SDS011;68448;51.188;6.868;2023-05-19T09:35:17;3.17;;;2.17;;
29954;SDS011;68448;51.188;6.868;2023-05-19T09:37:44;4.53;;;2.67;;
29954;SDS011;68448;51.188;6.868;2023-05-19T09:40:12;8.03;;;2.23;;
29954;SDS011;68448;51.188;6.868;2023-05-19T09:42:41;14.10;;;2.63;;
29954;SDS011;68448;51.188;6.868;2023-05-19T09:45:08;4.83;;;2.70;;
29954;SDS011;68448;51.188;6.868;2023-05-19T09:47:35;7.30;;;2.47;;
29954;SDS011;68448;51.188;6.868;2023-05-19T09:50:03;6.40;;;2.50;;
29954;SDS011;68448;51.188;6.868;2023-05-19T09:52:33;5.50;;;3.73;;
29954;SDS011;68448;51.188;6.868;2023-05-19T09:55:00;11.43;;;6.00;;
29954;SDS011;68448;51.188;6.868;2023-05-19T09:57:31;5.73;;;2.33;;
29954;SDS011;68448;51.188;6.868;2023-05-19T10:00:00;4.97;;;2.20;;
29954;SDS011;68448;51.188;6.868;2023-05-19T10:02:29;8.27;;;3.07;;
29954;SDS011;68448;51.188;6.868;2023-05-19T10:04:57;5.40;;;2.10;;
29954;SDS011;68448;51.188;6.868;2023-05-19T10:07:24;5.50;;;2.37;;
29954;SDS011;68448;51.188;6.868;2023-05-19T10:09:52;5.43;;;1.97;;
29954;SDS011;68448;51.188;6.868;2023-05-19T10:12:21;4.53;;;2.37;;
29954;SDS011;68448;51.188;6.868;2023-05-19T10:14:50;3.37;;;2.10;;
29954;SDS011;68448;51.188;6.868;2023-05-19T10:17:18;11.23;;;6.97;;
29954;SDS011;68448;51.188;6.868;2023-05-19T10:19:46;5.60;;;2.90;;
29954;SDS011;68448;51.188;6.868;2023-05-19T10:22:13;11.50;;;3.07;;
29954;SDS011;68448;51.188;6.868;2023-05-19T10:24:40;7.37;;;2.00;;
29954;SDS011;68448;51.188;6.868;2023-05-19T10:27:09;4.80;;;2.63;;
29954;SDS011;68448;51.188;6.868;2023-05-19T10:29:38;4.28;;;2.40;;
29954;SDS011;68448;51.188;6.868;2023-05-19T10:32:07;6.18;;;2.58;;
29954;SDS011;68448;51.188;6.868;2023-05-19T10:34:47;4.15;;;1.95;;
29954;SDS011;68448;51.188;6.868;2023-05-19T10:37:22;6.38;;;2.40;;
29954;SDS011;68448;51.188;6.868;2023-05-19T10:39:51;3.83;;;2.50;;
29954;SDS011;68448;51.188;6.868;2023-05-19T10:42:22;7.85;;;5.43;;
29954;SDS011;68448;51.188;6.868;2023-05-19T10:44:52;3.65;;;1.95;;
29954;SDS011;68448;51.188;6.868;2023-05-19T10:47:24;4.78;;;2.83;;
29954;SDS011;68448;51.188;6.868;2023-05-19T10:49:53;5.20;;;2.30;;
29954;SDS011;68448;51.188;6.868;2023-05-19T10:52:20;6.18;;;2.63;;
29954;SDS011;68448;51.188;6.868;2023-05-19T10:54:47;3.65;;;2.28;;
29954;SDS011;68448;51.188;6.868;2023-05-19T10:57:15;4.10;;;1.95;;
29954;SDS011;68448;51.188;6.868;2023-05-19T10:59:42;4.50;;;2.38;;
29954;SDS011;68448;51.188;6.868;2023-05-19T11:02:09;5.57;;;4.45;;
29954;SDS011;68448;51.188;6.868;2023-05-19T11:04:37;5.90;;;3.22;;
29954;SDS011;68448;51.188;6.868;2023-05-19T11:07:07;3.85;;;2.60;;
29954;SDS011;68448;51.188;6.868;2023-05-19T11:09:37;3.83;;;2.10;;
29954;SDS011;68448;51.188;6.868;2023-05-19T11:12:06;6.10;;;4.00;;
29954;SDS011;68448;51.188;6.868;2023-05-19T11:14:34;6.90;;;2.33;;
29954;SDS011;68448;51.188;6.868;2023-05-19T11:17:01;4.53;;;2.17;;
29954;SDS011;68448;51.188;6.868;2023-05-19T11:19:29;6.05;;;2.00;;
29954;SDS011;68448;51.188;6.868;2023-05-19T11:21:56;6.25;;;2.50;;
29954;SDS011;68448;51.188;6.868;2023-05-19T11:24:33;5.78;;;2.35;;
29954;SDS011;68448;51.188;6.868;2023-05-19T11:29:42;7.53;;;2.00;;
29954;SDS011;68448;51.188;6.868;2023-05-19T11:32:09;3.88;;;2.55;;
29954;SDS011;68448;51.188;6.868;2023-05-19T11:34:37;6.55;;;2.90;;
29954;SDS011;68448;51.188;6.868;2023-05-19T11:37:04;5.10;;;2.70;;
29954;SDS011;68448;51.188;6.868;2023-05-19T11:39:33;4.68;;;2.03;;
29954;SDS011;68448;51.188;6.868;2023-05-19T11:42:00;4.43;;;2.45;;
29954;SDS011;68448;51.188;6.868;2023-05-19T11:44:27;4.82;;;2.30;;
29954;SDS011;68448;51.188;6.868;2023-05-19T11:46:54;3.45;;;2.30;;
29954;SDS011;68448;51.188;6.868;2023-05-19T11:49:22;3.05;;;1.75;;
29954;SDS011;68448;51.188;6.868;2023-05-19T11:51:49;3.95;;;1.90;;
29954;SDS011;68448;51.188;6.868;2023-05-19T11:54:16;5.18;;;2.67;;
29954;SDS011;68448;51.188;6.868;2023-05-19T11:56:45;6.40;;;4.00;;
29954;SDS011;68448;51.188;6.868;2023-05-19T11:59:12;4.65;;;2.22;;
29954;SDS011;68448;51.188;6.868;2023-05-19T12:01:39;7.95;;;6.22;;
29954;SDS011;68448;51.188;6.868;2023-05-19T12:04:07;5.30;;;2.58;;
29954;SDS011;68448;51.188;6.868;2023-05-19T12:06:34;7.53;;;2.15;;
29954;SDS011;68448;51.188;6.868;2023-05-19T12:09:03;3.45;;;2.47;;
29954;SDS011;68448;51.188;6.868;2023-05-19T12:11:31;4.57;;;2.65;;
29954;SDS011;68448;51.188;6.868;2023-05-19T12:13:59;5.55;;;2.72;;
29954;SDS011;68448;51.188;6.868;2023-05-19T12:16:32;7.90;;;2.63;;
29954;SDS011;68448;51.188;6.868;2023-05-19T12:19:00;3.90;;;2.28;;
29954;SDS011;68448;51.188;6.868;2023-05-19T12:21:27;4.95;;;2.45;;
29954;SDS011;68448;51.188;6.868;2023-05-19T12:23:59;4.95;;;2.40;;
29954;SDS011;68448;51.188;6.868;2023-05-19T12:26:27;5.65;;;2.53;;
29954;SDS011;68448;51.188;6.868;2023-05-19T12:28:54;5.32;;;1.92;;
29954;SDS011;68448;51.188;6.868;2023-05-19T12:31:22;15.43;;;2.65;;
29954;SDS011;68448;51.188;6.868;2023-05-19T12:33:50;9.93;;;2.80;;
29954;SDS011;68448;51.188;6.868;2023-05-19T12:36:17;5.32;;;2.22;;
29954;SDS011;68448;51.188;6.868;2023-05-19T12:38:44;4.60;;;2.65;;
29954;SDS011;68448;51.188;6.868;2023-05-19T12:41:11;4.68;;;2.55;;
29954;SDS011;68448;51.188;6.868;2023-05-19T12:43:39;2.92;;;2.35;;
29954;SDS011;68448;51.188;6.868;2023-05-19T12:46:09;4.55;;;2.17;;
29954;SDS011;68448;51.188;6.868;2023-05-19T12:48:40;6.50;;;1.95;;
29954;SDS011;68448;51.188;6.868;2023-05-19T12:51:07;4.72;;;2.00;;
29954;SDS011;68448;51.188;6.868;2023-05-19T12:53:35;5.05;;;2.30;;
29954;SDS011;68448;51.188;6.868;2023-05-19T12:56:08;3.20;;;2.40;;
29954;SDS011;68448;51.188;6.868;2023-05-19T12:58:36;6.75;;;2.25;;
29954;SDS011;68448;51.188;6.868;2023-05-19T13:01:03;4.00;;;2.03;;
29954;SDS011;68448;51.188;6.868;2023-05-19T13:03:30;4.97;;;1.92;;
29954;SDS011;68448;51.188;6.868;2023-05-19T13:05:59;5.20;;;2.17;;
29954;SDS011;68448;51.188;6.868;2023-05-19T13:08:26;6.90;;;2.65;;
29954;SDS011;68448;51.188;6.868;2023-05-19T13:10:53;4.88;;;2.20;;
29954;SDS011;68448;51.188;6.868;2023-05-19T13:13:20;6.45;;;2.53;;
29954;SDS011;68448;51.188;6.868;2023-05-19T13:15:47;6.18;;;2.25;;
29954;SDS011;68448;51.188;6.868;2023-05-19T13:18:14;5.30;;;2.55;;
29954;SDS011;68448;51.188;6.868;2023-05-19T13:20:42;5.38;;;2.47;;
29954;SDS011;68448;51.188;6.868;2023-05-19T13:23:11;3.05;;;1.88;;
29954;SDS011;68448;51.188;6.868;2023-05-19T13:25:38;4.07;;;2.33;;
29954;SDS011;68448;51.188;6.868;2023-05-19T13:28:06;6.53;;;2.97;;
29954;SDS011;68448;51.188;6.868;2023-05-19T13:30:33;6.30;;;3.30;;
29954;SDS011;68448;51.188;6.868;2023-05-19T13:33:02;7.85;;;2.70;;
29954;SDS011;68448;51.188;6.868;2023-05-19T13:35:29;6.25;;;2.45;;
29954;SDS011;68448;51.188;6.868;2023-05-19T13:37:57;5.45;;;2.30;;
29954;SDS011;68448;51.188;6.868;2023-05-19T13:40:25;4.28;;;2.35;;
29954;SDS011;68448;51.188;6.868;2023-05-19T13:42:52;5.68;;;2.33;;
29954;SDS011;68448;51.188;6.868;2023-05-19T13:45:20;5.43;;;1.77;;
29954;SDS011;68448;51.188;6.868;2023-05-19T13:47:47;2.53;;;1.75;;
29954;SDS011;68448;51.188;6.868;2023-05-19T13:50:14;4.50;;;2.45;;
29954;SDS011;68448;51.188;6.868;2023-05-19T13:52:41;6.72;;;2.20;;
29954;SDS011;68448;51.188;6.868;2023-05-19T13:55:08;4.03;;;2.20;;
29954;SDS011;68448;51.188;6.868;2023-05-19T13:57:37;2.83;;;2.20;;
29954;SDS011;68448;51.188;6.868;2023-05-19T14:00:04;4.10;;;2.30;;
29954;SDS011;68448;51.188;6.868;2023-05-19T14:02:38;3.22;;;2.35;;
29954;SDS011;68448;51.188;6.868;2023-05-19T14:05:06;5.60;;;2.00;;
29954;SDS011;68448;51.188;6.868;2023-05-19T14:07:33;5.60;;;2.00;;
29954;SDS011;68448;51.188;6.868;2023-05-19T14:10:01;5.05;;;2.50;;
29954;SDS011;68448;51.188;6.868;2023-05-19T14:12:28;5.60;;;2.00;;
29954;SDS011;68448;51.188;6.868;2023-05-19T14:15:13;2.17;;;1.98;;
29954;SDS011;68448;51.188;6.868;2023-05-19T14:17:41;4.25;;;1.88;;
29954;SDS011;68448;51.188;6.868;2023-05-19T14:20:08;6.50;;;2.45;;
29954;SDS011;68448;51.188;6.868;2023-05-19T14:22:35;2.33;;;1.85;;
29954;SDS011;68448;51.188;6.868;2023-05-19T14:25:03;4.63;;;1.70;;
29954;SDS011;68448;51.188;6.868;2023-05-19T14:27:30;3.85;;;2.13;;
29954;SDS011;68448;51.188;6.868;2023-05-19T14:29:57;3.75;;;2.28;;
29954;SDS011;68448;51.188;6.868;2023-05-19T14:32:25;3.58;;;2.28;;
29954;SDS011;68448;51.188;6.868;2023-05-19T14:34:55;5.90;;;2.20;;
29954;SDS011;68448;51.188;6.868;2023-05-19T14:37:22;5.70;;;2.55;;
29954;SDS011;68448;51.188;6.868;2023-05-19T14:39:49;2.45;;;2.08;;
29954;SDS011;68448;51.188;6.868;2023-05-19T14:42:17;5.22;;;2.38;;
29954;SDS011;68448;51.188;6.868;2023-05-19T14:44:44;3.13;;;1.92;;
29954;SDS011;68448;51.188;6.868;2023-05-19T14:47:11;2.38;;;2.10;;
29954;SDS011;68448;51.188;6.868;2023-05-19T14:49:39;7.75;;;1.77;;
29954;SDS011;68448;51.188;6.868;2023-05-19T14:52:07;3.33;;;2.10;;
29954;SDS011;68448;51.188;6.868;2023-05-19T14:54:34;3.83;;;2.00;;
29954;SDS011;68448;51.188;6.868;2023-05-19T14:57:01;5.13;;;2.00;;